Time;durP1;ratioP1;P1;durP2;ratioP2;P2;SDS_P1;SDS_P2;PMS_P1;PMS_P2;Temp;Humidity;BMP_temperature;BMP_pressure;BME280_temperature;BME280_humidity;BME280_pressure;Samples;Min_cycle;Max_cycle;Signal;HPM_P1;HPM_P2
2022/01/09 00:00:13;;;;;;;6.53;1.42;;;;;;;;;;6145118;23;20006;-46
2022/01/09 00:02:39;;;;;;;2.85;1.15;;;;;;;;;;6143475;23;20025;-50
2022/01/09 00:05:04;;;;;;;2.03;0.90;;;;;;;;;;6145185;23;20064;-50
2022/01/09 00:07:30;;;;;;;2.63;1.30;;;;;;;;;;6143641;23;20033;-48
2022/01/09 00:09:56;;;;;;;2.45;1.15;;;;;;;;;;6144759;23;20021;-46
2022/01/09 00:12:22;;;;;;;4.72;1.83;;;;;;;;;;6143422;23;20024;-45
2022/01/09 00:14:47;;;;;;;2.55;0.82;;;;;;;;;;6145147;23;20014;-47
2022/01/09 00:17:12;;;;;;;6.93;2.00;;;;;;;;;;6144063;23;20005;-46
2022/01/09 00:19:38;;;;;;;4.15;1.25;;;;;;;;;;6142652;23;20014;-46
2022/01/09 00:22:03;;;;;;;8.45;1.30;;;;;;;;;;6144290;23;20452;-47
2022/01/09 00:24:28;;;;;;;3.72;1.10;;;;;;;;;;6144572;23;20040;-46
2022/01/09 00:26:54;;;;;;;5.47;1.30;;;;;;;;;;6144343;23;20025;-46
2022/01/09 00:29:19;;;;;;;3.92;1.15;;;;;;;;;;6143930;23;20056;-46
2022/01/09 00:31:44;;;;;;;1.88;1.23;;;;;;;;;;6143245;23;20017;-46
2022/01/09 00:34:09;;;;;;;5.78;1.52;;;;;;;;;;6145886;23;20013;-47
2022/01/09 00:36:35;;;;;;;1.90;1.17;;;;;;;;;;6146367;23;20005;-46
2022/01/09 00:39:01;;;;;;;6.60;1.80;;;;;;;;;;6147770;23;20017;-47
2022/01/09 00:41:26;;;;;;;7.78;1.83;;;;;;;;;;6146134;23;20037;-46
2022/01/09 00:43:51;;;;;;;8.27;1.95;;;;;;;;;;6147392;23;20025;-46
2022/01/09 00:46:17;;;;;;;5.60;2.03;;;;;;;;;;6146215;23;20059;-52
2022/01/09 00:48:42;;;;;;;3.58;1.25;;;;;;;;;;6147044;23;20101;-46
2022/01/09 00:51:08;;;;;;;3.40;1.27;;;;;;;;;;6146621;23;20025;-49
2022/01/09 00:53:33;;;;;;;4.22;1.60;;;;;;;;;;6146853;23;20010;-48
2022/01/09 00:55:59;;;;;;;1.30;1.10;;;;;;;;;;6146319;23;20364;-46
2022/01/09 00:58:24;;;;;;;3.80;1.60;;;;;;;;;;6146905;23;20014;-46
2022/01/09 01:00:49;;;;;;;3.28;1.63;;;;;;;;;;6146578;23;20013;-45
2022/01/09 01:03:15;;;;;;;1.98;1.13;;;;;;;;;;6145159;23;20016;-44
2022/01/09 01:05:40;;;;;;;3.45;1.63;;;;;;;;;;6146552;23;20463;-46
2022/01/09 01:08:05;;;;;;;3.38;1.70;;;;;;;;;;6147283;23;20354;-47
2022/01/09 01:10:31;;;;;;;5.50;1.38;;;;;;;;;;6145778;23;20372;-46
2022/01/09 01:12:56;;;;;;;5.50;1.38;;;;;;;;;;6147410;23;20058;-47
2022/01/09 01:15:21;;;;;;;4.05;1.20;;;;;;;;;;6145869;23;20029;-45
2022/01/09 01:17:47;;;;;;;3.15;1.33;;;;;;;;;;6147160;23;20017;-47
2022/01/09 01:20:12;;;;;;;5.63;1.58;;;;;;;;;;6145746;23;20021;-47
2022/01/09 01:22:39;;;;;;;3.20;1.70;;;;;;;;;;6146902;23;20082;-47
2022/01/09 01:25:05;;;;;;;1.48;1.00;;;;;;;;;;6146433;23;20067;-46
2022/01/09 01:27:30;;;;;;;5.53;1.40;;;;;;;;;;6146601;23;20025;-47
2022/01/09 01:29:56;;;;;;;4.25;1.50;;;;;;;;;;6145791;23;20084;-46
2022/01/09 01:32:22;;;;;;;1.58;0.93;;;;;;;;;;6146759;23;20010;-49
2022/01/09 01:34:47;;;;;;;1.77;1.33;;;;;;;;;;6146181;23;20005;-46
2022/01/09 01:37:13;;;;;;;6.72;1.77;;;;;;;;;;6147218;23;20390;-47
2022/01/09 01:39:38;;;;;;;2.00;1.58;;;;;;;;;;6145572;23;20010;-46
2022/01/09 01:42:03;;;;;;;3.47;1.35;;;;;;;;;;6146998;23;20514;-46
2022/01/09 01:44:42;;;;;;;2.85;1.52;;;;;;;;;;6145724;23;20096;-48
2022/01/09 01:47:07;;;;;;;3.60;1.55;;;;;;;;;;6146859;23;20499;-47
2022/01/09 01:49:32;;;;;;;7.05;1.92;;;;;;;;;;6144794;23;20018;-47
2022/01/09 01:51:58;;;;;;;5.53;1.63;;;;;;;;;;6146467;23;20051;-47
2022/01/09 01:54:25;;;;;;;3.88;1.60;;;;;;;;;;6145459;23;20515;-46
2022/01/09 01:56:50;;;;;;;5.60;1.70;;;;;;;;;;6144975;23;20052;-46
2022/01/09 01:59:15;;;;;;;4.53;1.70;;;;;;;;;;6144938;23;20456;-46
2022/01/09 02:01:41;;;;;;;6.78;1.73;;;;;;;;;;6147107;23;20009;-47
2022/01/09 02:04:06;;;;;;;5.20;2.45;;;;;;;;;;6145712;23;20116;-50
2022/01/09 02:06:32;;;;;;;9.48;2.75;;;;;;;;;;6146066;23;20473;-47
2022/01/09 02:08:57;;;;;;;7.45;2.35;;;;;;;;;;6145266;23;20040;-49
2022/01/09 02:11:23;;;;;;;3.92;1.30;;;;;;;;;;6146241;23;20014;-49
2022/01/09 02:13:48;;;;;;;6.57;2.38;;;;;;;;;;6145668;23;20013;-46
2022/01/09 02:16:18;;;;;;;3.40;1.40;;;;;;;;;;6146104;23;20014;-47
2022/01/09 02:18:44;;;;;;;4.57;1.40;;;;;;;;;;6143993;23;20002;-46
2022/01/09 02:21:10;;;;;;;3.33;1.35;;;;;;;;;;6146711;23;20036;-47
2022/01/09 02:23:37;;;;;;;3.80;1.50;;;;;;;;;;6145627;23;20086;-47
2022/01/09 02:26:02;;;;;;;8.27;2.03;;;;;;;;;;6147082;23;20017;-46
2022/01/09 02:28:29;;;;;;;5.10;1.38;;;;;;;;;;6144917;23;20021;-48
2022/01/09 02:30:54;;;;;;;7.07;1.85;;;;;;;;;;6146750;23;20044;-47
2022/01/09 02:33:20;;;;;;;4.32;1.63;;;;;;;;;;6144429;23;20747;-47
2022/01/09 02:35:47;;;;;;;7.63;2.75;;;;;;;;;;6146979;23;20024;-46
2022/01/09 02:38:13;;;;;;;4.03;1.27;;;;;;;;;;6146025;23;20014;-46
2022/01/09 02:40:38;;;;;;;3.67;1.27;;;;;;;;;;6146500;23;20288;-48
2022/01/09 02:43:03;;;;;;;4.95;1.38;;;;;;;;;;6145763;23;20010;-48
2022/01/09 02:45:29;;;;;;;3.22;1.60;;;;;;;;;;6146251;23;20018;-48
2022/01/09 02:47:56;;;;;;;3.67;1.20;;;;;;;;;;6145555;23;20013;-47
2022/01/09 02:52:50;;;;;;;9.88;2.13;;;;;;;;;;6146202;23;20017;-46
2022/01/09 02:55:15;;;;;;;5.25;1.52;;;;;;;;;;6145832;23;20016;-48
2022/01/09 02:57:42;;;;;;;4.45;1.92;;;;;;;;;;6145778;23;20368;-46
2022/01/09 03:00:14;;;;;;;7.55;1.58;;;;;;;;;;6146588;23;20017;-46
2022/01/09 03:02:39;;;;;;;2.20;1.10;;;;;;;;;;6145489;23;20012;-47
2022/01/09 03:05:05;;;;;;;2.40;1.15;;;;;;;;;;6146441;23;20013;-46
2022/01/09 03:07:30;;;;;;;4.05;2.58;;;;;;;;;;6144934;23;20037;-47
2022/01/09 03:09:55;;;;;;;4.20;1.35;;;;;;;;;;6145974;23;20456;-46
2022/01/09 03:12:22;;;;;;;3.45;0.77;;;;;;;;;;6145048;23;20021;-46
2022/01/09 03:14:47;;;;;;;4.20;1.50;;;;;;;;;;6146220;23;20028;-46
2022/01/09 03:17:13;;;;;;;3.08;1.38;;;;;;;;;;6145578;23;20064;-46
2022/01/09 03:19:38;;;;;;;3.38;1.30;;;;;;;;;;6145663;23;20012;-46
2022/01/09 03:22:03;;;;;;;2.10;1.20;;;;;;;;;;6145730;23;20084;-49
2022/01/09 03:24:28;;;;;;;4.97;1.75;;;;;;;;;;6145627;23;20034;-47
2022/01/09 03:26:54;;;;;;;3.83;1.50;;;;;;;;;;6146084;23;20017;-47
2022/01/09 03:29:19;;;;;;;5.28;2.05;;;;;;;;;;6147748;23;20005;-48
2022/01/09 03:31:44;;;;;;;3.88;1.08;;;;;;;;;;6147278;23;20025;-49
2022/01/09 03:34:09;;;;;;;7.05;2.88;;;;;;;;;;6147915;23;20009;-47
2022/01/09 03:36:35;;;;;;;6.20;1.10;;;;;;;;;;6146622;23;20006;-47
2022/01/09 03:39:00;;;;;;;7.47;1.50;;;;;;;;;;6145775;23;20006;-47
2022/01/09 03:41:26;;;;;;;3.65;1.65;;;;;;;;;;6147139;23;20006;-47
2022/01/09 03:43:52;;;;;;;4.13;1.30;;;;;;;;;;6148255;23;20388;-46
2022/01/09 03:46:17;;;;;;;2.42;1.17;;;;;;;;;;6146784;23;20080;-47
2022/01/09 03:51:31;;;;;;;2.20;1.40;;;;;;;;;;6149404;23;20459;-47
2022/01/09 03:53:57;;;;;;;6.57;1.60;;;;;;;;;;6173725;23;20094;-51
2022/01/09 03:56:22;;;;;;;4.32;1.85;;;;;;;;;;6174044;23;20387;-48
2022/01/09 03:58:47;;;;;;;4.38;1.60;;;;;;;;;;6174962;23;20016;-45
2022/01/09 04:01:12;;;;;;;4.20;1.40;;;;;;;;;;6174693;23;20005;-47
2022/01/09 04:03:38;;;;;;;3.25;1.40;;;;;;;;;;6173597;23;20095;-46
2022/01/09 04:06:03;;;;;;;4.88;1.27;;;;;;;;;;6175350;23;20017;-47
2022/01/09 04:08:28;;;;;;;4.03;1.05;;;;;;;;;;6177020;23;20009;-46
2022/01/09 04:10:54;;;;;;;5.82;1.60;;;;;;;;;;6177623;23;20025;-47
2022/01/09 04:13:19;;;;;;;2.90;1.38;;;;;;;;;;6177375;23;20028;-45
2022/01/09 04:15:49;;;;;;;5.32;1.88;;;;;;;;;;6175890;23;20087;-47
2022/01/09 04:18:18;;;;;;;4.05;1.60;;;;;;;;;;6176776;23;20013;-46
2022/01/09 04:20:43;;;;;;;2.70;1.35;;;;;;;;;;6188805;23;20481;-48
2022/01/09 04:23:08;;;;;;;3.50;1.50;;;;;;;;;;6178053;23;20005;-47
2022/01/09 04:25:34;;;;;;;3.38;1.42;;;;;;;;;;6177030;23;20331;-46
2022/01/09 04:27:59;;;;;;;4.72;1.42;;;;;;;;;;6176166;23;20020;-48
2022/01/09 04:30:24;;;;;;;8.43;2.58;;;;;;;;;;6177569;23;20017;-46
2022/01/09 04:32:50;;;;;;;5.20;1.40;;;;;;;;;;6151220;23;20588;-47
2022/01/09 04:35:15;;;;;;;6.50;1.52;;;;;;;;;;6177374;23;20037;-48
2022/01/09 04:37:41;;;;;;;5.97;1.48;;;;;;;;;;6177435;23;20351;-50
2022/01/09 04:40:09;;;;;;;4.47;1.10;;;;;;;;;;6177778;23;20016;-50
2022/01/09 04:42:44;;;;;;;6.90;2.03;;;;;;;;;;6177087;23;20009;-47
2022/01/09 04:45:11;;;;;;;5.80;2.40;;;;;;;;;;6177788;23;20017;-48
2022/01/09 04:47:36;;;;;;;3.58;1.48;;;;;;;;;;6176920;23;20148;-48
2022/01/09 04:50:02;;;;;;;4.80;1.38;;;;;;;;;;6177045;23;20037;-48
2022/01/09 04:52:33;;;;;;;5.90;1.70;;;;;;;;;;6177133;23;20013;-47
2022/01/09 04:54:58;;;;;;;2.58;1.65;;;;;;;;;;6177470;23;20005;-47
2022/01/09 04:57:23;;;;;;;4.13;1.98;;;;;;;;;;6177301;23;20067;-47
2022/01/09 04:59:49;;;;;;;4.32;1.50;;;;;;;;;;6177275;23;20024;-46
2022/01/09 05:02:15;;;;;;;4.13;1.35;;;;;;;;;;6177034;23;20028;-44
2022/01/09 05:04:40;;;;;;;2.97;1.17;;;;;;;;;;6177302;23;20655;-47
2022/01/09 05:07:05;;;;;;;2.45;1.52;;;;;;;;;;6177583;23;20021;-49
2022/01/09 05:09:31;;;;;;;4.30;1.48;;;;;;;;;;6176891;23;20680;-46
2022/01/09 05:11:57;;;;;;;7.07;1.52;;;;;;;;;;6176978;23;20809;-47
2022/01/09 05:14:22;;;;;;;5.40;1.92;;;;;;;;;;6176942;23;20009;-46
2022/01/09 05:16:49;;;;;;;4.68;1.65;;;;;;;;;;6177108;23;20037;-48
2022/01/09 05:19:20;;;;;;;5.57;1.80;;;;;;;;;;6176921;23;20017;-43
2022/01/09 05:21:46;;;;;;;4.57;1.25;;;;;;;;;;6177559;23;20011;-47
2022/01/09 05:24:11;;;;;;;4.32;1.70;;;;;;;;;;6176987;23;20012;-46
2022/01/09 05:26:36;;;;;;;4.65;1.75;;;;;;;;;;6176934;23;20009;-46
2022/01/09 05:29:02;;;;;;;4.10;1.23;;;;;;;;;;6177077;23;20016;-45
2022/01/09 05:31:28;;;;;;;2.17;1.50;;;;;;;;;;6176287;23;20083;-47
2022/01/09 05:33:53;;;;;;;7.63;1.98;;;;;;;;;;6176641;23;20127;-47
2022/01/09 05:36:18;;;;;;;5.82;1.67;;;;;;;;;;6176348;23;20033;-48
2022/01/09 05:38:44;;;;;;;2.58;1.75;;;;;;;;;;6150928;23;20036;-46
2022/01/09 05:41:10;;;;;;;3.30;1.27;;;;;;;;;;6177259;23;20426;-47
2022/01/09 05:43:35;;;;;;;4.40;1.98;;;;;;;;;;6176793;23;20009;-46
2022/01/09 05:46:01;;;;;;;3.40;1.45;;;;;;;;;;6176667;23;20024;-46
2022/01/09 05:48:26;;;;;;;2.03;1.60;;;;;;;;;;6176935;23;20013;-51
2022/01/09 05:50:51;;;;;;;7.97;2.33;;;;;;;;;;6176000;23;20017;-48
2022/01/09 05:53:16;;;;;;;4.78;2.78;;;;;;;;;;6176584;23;20509;-47
2022/01/09 05:55:42;;;;;;;4.68;1.80;;;;;;;;;;6176817;23;20376;-47
2022/01/09 05:58:07;;;;;;;8.43;2.25;;;;;;;;;;6176976;23;20005;-51
2022/01/09 06:00:32;;;;;;;4.55;1.55;;;;;;;;;;6176804;23;20020;-46
2022/01/09 06:02:57;;;;;;;5.50;2.10;;;;;;;;;;6176862;23;20012;-47
2022/01/09 06:05:23;;;;;;;5.30;1.88;;;;;;;;;;6176378;23;20012;-46
2022/01/09 06:07:48;;;;;;;4.32;1.60;;;;;;;;;;6176947;23;20084;-49
2022/01/09 06:10:13;;;;;;;7.82;1.95;;;;;;;;;;6176747;23;20533;-46
2022/01/09 06:12:39;;;;;;;7.38;2.25;;;;;;;;;;6176466;23;20013;-45
2022/01/09 06:15:05;;;;;;;3.53;1.67;;;;;;;;;;6176584;23;20468;-47
2022/01/09 06:17:37;;;;;;;3.92;2.50;;;;;;;;;;6176466;23;20009;-45
2022/01/09 06:20:03;;;;;;;3.83;1.90;;;;;;;;;;6176497;23;20032;-45
2022/01/09 06:22:28;;;;;;;5.53;1.95;;;;;;;;;;6176272;23;20013;-47
2022/01/09 06:24:54;;;;;;;2.78;1.55;;;;;;;;;;6176717;23;20123;-47
2022/01/09 06:27:19;;;;;;;4.30;1.90;;;;;;;;;;6176069;23;20036;-46
2022/01/09 06:29:44;;;;;;;2.55;1.65;;;;;;;;;;6176580;23;20009;-46
2022/01/09 06:32:10;;;;;;;4.50;1.98;;;;;;;;;;6176210;23;20009;-45
2022/01/09 06:34:35;;;;;;;2.72;1.60;;;;;;;;;;6176570;23;20387;-47
2022/01/09 06:37:01;;;;;;;8.38;1.83;;;;;;;;;;6176350;23;20009;-47
2022/01/09 06:39:26;;;;;;;3.30;1.75;;;;;;;;;;6176404;23;20128;-47
2022/01/09 06:41:51;;;;;;;4.32;1.73;;;;;;;;;;6150467;23;20029;-45
2022/01/09 06:44:17;;;;;;;3.25;2.13;;;;;;;;;;6176064;23;20013;-48
2022/01/09 06:46:43;;;;;;;4.88;1.95;;;;;;;;;;6176307;23;20081;-46
2022/01/09 06:49:08;;;;;;;3.63;1.55;;;;;;;;;;6176975;23;20071;-46
2022/01/09 06:51:33;;;;;;;6.25;2.17;;;;;;;;;;6175692;23;20033;-48
2022/01/09 06:53:59;;;;;;;4.75;1.45;;;;;;;;;;6176475;23;20443;-51
2022/01/09 06:56:24;;;;;;;6.38;1.80;;;;;;;;;;6175049;23;20043;-51
2022/01/09 06:58:49;;;;;;;11.13;2.47;;;;;;;;;;6176755;23;20005;-48
2022/01/09 07:01:15;;;;;;;3.50;1.50;;;;;;;;;;6175492;23;20066;-50
2022/01/09 07:03:40;;;;;;;2.38;1.73;;;;;;;;;;6178683;23;20080;-48
2022/01/09 07:06:05;;;;;;;8.80;1.90;;;;;;;;;;6178229;23;20016;-46
2022/01/09 07:08:33;;;;;;;5.68;2.78;;;;;;;;;;6178007;23;20024;-46
2022/01/09 07:10:59;;;;;;;3.47;1.40;;;;;;;;;;6178170;23;20793;-50
2022/01/09 07:13:24;;;;;;;3.47;1.58;;;;;;;;;;6177713;23;20012;-45
2022/01/09 07:15:49;;;;;;;5.55;1.60;;;;;;;;;;6178165;23;20390;-47
2022/01/09 07:18:14;;;;;;;3.63;1.65;;;;;;;;;;6178185;23;20217;-47
2022/01/09 07:20:40;;;;;;;3.65;1.10;;;;;;;;;;6178105;23;20038;-47
2022/01/09 07:23:05;;;;;;;4.05;1.58;;;;;;;;;;6178461;23;20080;-48
2022/01/09 07:25:30;;;;;;;4.38;1.85;;;;;;;;;;6177622;23;20017;-46
2022/01/09 07:27:55;;;;;;;5.20;1.30;;;;;;;;;;6177875;23;20039;-48
2022/01/09 07:30:21;;;;;;;2.83;1.40;;;;;;;;;;6151470;23;20055;-46
2022/01/09 07:32:46;;;;;;;5.90;1.48;;;;;;;;;;6152081;23;20013;-46
2022/01/09 07:35:11;;;;;;;2.40;1.52;;;;;;;;;;6175620;23;20443;-46
2022/01/09 07:37:36;;;;;;;2.20;1.33;;;;;;;;;;6177337;23;20513;-46
2022/01/09 07:40:03;;;;;;;2.92;2.33;;;;;;;;;;6178343;23;20009;-46
2022/01/09 07:42:28;;;;;;;3.17;1.42;;;;;;;;;;6150772;23;20459;-47
2022/01/09 07:44:53;;;;;;;4.60;2.25;;;;;;;;;;6177150;23;20025;-46
2022/01/09 07:47:19;;;;;;;3.38;1.40;;;;;;;;;;6176806;23;20017;-47
2022/01/09 07:49:44;;;;;;;2.47;1.60;;;;;;;;;;6177133;23;20406;-46
2022/01/09 07:52:09;;;;;;;3.25;1.50;;;;;;;;;;6173147;23;20021;-45
2022/01/09 07:54:35;;;;;;;3.30;1.60;;;;;;;;;;6176923;23;20005;-46
2022/01/09 07:57:00;;;;;;;4.53;1.98;;;;;;;;;;6177627;23;20246;-47
2022/01/09 07:59:25;;;;;;;3.78;1.80;;;;;;;;;;6176854;23;20011;-45
2022/01/09 08:01:50;;;;;;;6.00;2.17;;;;;;;;;;6177954;23;20028;-45
2022/01/09 08:04:16;;;;;;;7.68;2.08;;;;;;;;;;6176851;23;20017;-46
2022/01/09 08:06:41;;;;;;;6.30;2.35;;;;;;;;;;6177714;23;20383;-46
2022/01/09 08:09:07;;;;;;;10.27;2.30;;;;;;;;;;6175986;23;20020;-46
2022/01/09 08:11:32;;;;;;;6.05;1.92;;;;;;;;;;6175791;23;20044;-45
2022/01/09 08:13:57;;;;;;;4.43;1.40;;;;;;;;;;6176387;23;20009;-46
2022/01/09 08:16:23;;;;;;;5.35;1.67;;;;;;;;;;6176068;23;20316;-45
2022/01/09 08:18:48;;;;;;;4.90;1.58;;;;;;;;;;6176921;23;20558;-45
2022/01/09 08:21:19;;;;;;;4.45;1.92;;;;;;;;;;6176465;23;20340;-48
2022/01/09 08:23:44;;;;;;;3.05;1.75;;;;;;;;;;6206529;23;20004;-47
2022/01/09 08:26:10;;;;;;;4.65;1.65;;;;;;;;;;6179694;23;20011;-49
2022/01/09 08:28:35;;;;;;;5.80;1.45;;;;;;;;;;6206453;23;20014;-45
2022/01/09 08:31:00;;;;;;;5.55;1.85;;;;;;;;;;6206140;23;20078;-46
2022/01/09 08:33:26;;;;;;;5.95;1.70;;;;;;;;;;6206525;23;20466;-46
2022/01/09 08:35:51;;;;;;;3.00;1.38;;;;;;;;;;6206592;23;20083;-46
2022/01/09 08:38:18;;;;;;;2.42;1.30;;;;;;;;;;6205860;23;20016;-45
2022/01/09 08:40:43;;;;;;;6.82;1.95;;;;;;;;;;6206538;23;20088;-44
2022/01/09 08:43:08;;;;;;;5.65;1.63;;;;;;;;;;6206722;23;20102;-45
2022/01/09 08:45:33;;;;;;;5.00;1.30;;;;;;;;;;6206430;23;20443;-45
2022/01/09 08:47:59;;;;;;;5.50;1.85;;;;;;;;;;6206172;23;20008;-48
2022/01/09 08:50:24;;;;;;;3.60;1.40;;;;;;;;;;6206106;23;20421;-46
2022/01/09 08:52:49;;;;;;;6.15;1.45;;;;;;;;;;6206318;23;20012;-46
2022/01/09 08:55:15;;;;;;;3.78;1.38;;;;;;;;;;6206235;23;20431;-45
2022/01/09 08:57:40;;;;;;;3.85;1.60;;;;;;;;;;6206061;23;20012;-46
2022/01/09 09:00:06;;;;;;;4.30;1.60;;;;;;;;;;6206695;23;20008;-45
2022/01/09 09:02:32;;;;;;;3.85;1.33;;;;;;;;;;6179053;23;20032;-45
2022/01/09 09:04:58;;;;;;;3.80;1.58;;;;;;;;;;6206425;23;20087;-49
2022/01/09 09:07:24;;;;;;;3.72;1.70;;;;;;;;;;6204594;23;20008;-49
2022/01/09 09:09:50;;;;;;;10.07;2.22;;;;;;;;;;6206425;23;20467;-48
2022/01/09 09:12:15;;;;;;;3.83;1.45;;;;;;;;;;6205422;23;20016;-47
2022/01/09 09:14:41;;;;;;;5.10;1.63;;;;;;;;;;6179530;23;20072;-45
2022/01/09 09:17:06;;;;;;;4.25;1.45;;;;;;;;;;6205848;23;20051;-44
2022/01/09 09:19:32;;;;;;;4.38;1.83;;;;;;;;;;6205974;23;20008;-45
2022/01/09 09:21:57;;;;;;;3.55;1.90;;;;;;;;;;6206100;23;20009;-45
2022/01/09 09:24:22;;;;;;;3.72;1.80;;;;;;;;;;6205565;23;20009;-45
2022/01/09 09:26:47;;;;;;;7.03;1.52;;;;;;;;;;6205889;23;20075;-45
2022/01/09 09:29:12;;;;;;;2.22;1.48;;;;;;;;;;6206834;23;20009;-46
2022/01/09 09:31:38;;;;;;;3.53;1.55;;;;;;;;;;6205453;23;20024;-46
2022/01/09 09:34:05;;;;;;;3.75;1.65;;;;;;;;;;6206210;23;20011;-44
2022/01/09 09:36:31;;;;;;;10.85;2.67;;;;;;;;;;6205788;23;20021;-45
2022/01/09 09:38:56;;;;;;;10.57;2.50;;;;;;;;;;6206319;23;20023;-46
2022/01/09 09:41:24;;;;;;;5.00;2.70;;;;;;;;;;6204546;23;20039;-45
2022/01/09 09:43:50;;;;;;;6.40;1.92;;;;;;;;;;6205696;23;20013;-45
2022/01/09 09:46:15;;;;;;;6.70;1.80;;;;;;;;;;6201275;23;20039;-43
2022/01/09 09:48:41;;;;;;;4.82;1.80;;;;;;;;;;6204956;23;20011;-45
2022/01/09 09:51:06;;;;;;;6.72;2.22;;;;;;;;;;6205240;23;20020;-48
2022/01/09 09:53:31;;;;;;;2.28;1.50;;;;;;;;;;6205136;23;20107;-46
2022/01/09 09:55:57;;;;;;;4.22;1.75;;;;;;;;;;6205405;23;20087;-45
2022/01/09 09:58:23;;;;;;;3.25;1.60;;;;;;;;;;6205056;23;20568;-45
2022/01/09 10:00:53;;;;;;;1.95;1.27;;;;;;;;;;6206445;23;20009;-44
2022/01/09 10:03:25;;;;;;;5.43;1.48;;;;;;;;;;6204919;23;20020;-48
2022/01/09 10:05:51;;;;;;;3.05;1.70;;;;;;;;;;6205927;23;20011;-45
2022/01/09 10:08:16;;;;;;;5.35;1.20;;;;;;;;;;6204944;23;20465;-45
2022/01/09 10:10:42;;;;;;;3.55;1.23;;;;;;;;;;6205817;23;20022;-46
2022/01/09 10:13:14;;;;;;;3.40;1.10;;;;;;;;;;6205317;23;20111;-49
2022/01/09 10:15:43;;;;;;;5.32;1.48;;;;;;;;;;6178756;23;20008;-46
2022/01/09 10:18:08;;;;;;;4.00;1.60;;;;;;;;;;6205756;23;20039;-50
2022/01/09 10:20:33;;;;;;;5.07;1.50;;;;;;;;;;6177668;23;20066;-45
2022/01/09 10:22:59;;;;;;;7.05;1.73;;;;;;;;;;6205865;23;20069;-45
2022/01/09 10:25:35;;;;;;;4.22;1.08;;;;;;;;;;6177767;23;20533;-45
2022/01/09 10:28:07;;;;;;;2.45;1.40;;;;;;;;;;6179269;23;20043;-45
2022/01/09 10:30:34;;;;;;;3.60;1.30;;;;;;;;;;6204874;23;20430;-45
2022/01/09 10:33:01;;;;;;;4.82;1.45;;;;;;;;;;6206031;23;20087;-46
2022/01/09 10:35:27;;;;;;;2.58;1.30;;;;;;;;;;6205092;23;20091;-46
2022/01/09 10:38:03;;;;;;;3.97;2.08;;;;;;;;;;6205269;23;20043;-45
2022/01/09 10:40:30;;;;;;;1.58;1.48;;;;;;;;;;6205071;23;20028;-45
2022/01/09 10:43:04;;;;;;;3.33;1.23;;;;;;;;;;6205831;23;20092;-45
2022/01/09 10:45:31;;;;;;;3.38;1.33;;;;;;;;;;6205524;23;20023;-45
2022/01/09 10:48:04;;;;;;;4.40;1.40;;;;;;;;;;6204627;23;20009;-47
2022/01/09 10:50:31;;;;;;;4.82;1.02;;;;;;;;;;6203062;23;20406;-46
2022/01/09 10:53:12;;;;;;;2.55;1.15;;;;;;;;;;6205276;23;20143;-45
2022/01/09 10:55:38;;;;;;;3.95;1.30;;;;;;;;;;6204895;23;20092;-48
2022/01/09 10:58:14;;;;;;;2.70;1.17;;;;;;;;;;6204239;23;20195;-47
2022/01/09 11:00:40;;;;;;;7.30;1.60;;;;;;;;;;6173323;23;20074;-49
2022/01/09 11:03:05;;;;;;;3.08;1.42;;;;;;;;;;6202370;23;20450;-47
2022/01/09 11:05:31;;;;;;;3.60;1.52;;;;;;;;;;6201173;23;20528;-47
2022/01/09 11:07:57;;;;;;;2.88;1.40;;;;;;;;;;6202082;23;20009;-46
2022/01/09 11:10:23;;;;;;;3.05;1.40;;;;;;;;;;6201661;23;20016;-50
2022/01/09 11:12:49;;;;;;;3.03;1.20;;;;;;;;;;6202734;23;20008;-51
2022/01/09 11:15:21;;;;;;;4.53;1.40;;;;;;;;;;6201290;23;20016;-45
2022/01/09 11:17:48;;;;;;;6.22;1.75;;;;;;;;;;6202627;23;20626;-44
2022/01/09 11:20:13;;;;;;;8.25;1.80;;;;;;;;;;6202272;23;20454;-44
2022/01/09 11:22:38;;;;;;;3.47;1.92;;;;;;;;;;6200799;23;20020;-44
2022/01/09 11:25:10;;;;;;;6.30;2.42;;;;;;;;;;6202118;23;20024;-46
2022/01/09 11:27:54;;;;;;;6.78;1.50;;;;;;;;;;6201394;23;20009;-45
2022/01/09 11:30:21;;;;;;;4.47;1.70;;;;;;;;;;6201507;23;20009;-46
2022/01/09 11:32:55;;;;;;;6.05;1.40;;;;;;;;;;6199954;23;20005;-45
2022/01/09 11:35:39;;;;;;;3.20;1.35;;;;;;;;;;6200347;23;20013;-47
2022/01/09 11:38:15;;;;;;;7.22;1.98;;;;;;;;;;6199901;23;20693;-46
2022/01/09 11:40:40;;;;;;;4.50;1.30;;;;;;;;;;6201416;23;20494;-49
2022/01/09 11:43:12;;;;;;;4.88;1.50;;;;;;;;;;6202814;23;20013;-52
2022/01/09 11:45:47;;;;;;;5.60;1.95;;;;;;;;;;6195798;23;20071;-48
2022/01/09 11:48:14;;;;;;;1.63;1.10;;;;;;;;;;6205357;23;20020;-48
2022/01/09 11:51:02;;;;;;;4.72;2.13;;;;;;;;;;6206453;23;20044;-48
2022/01/09 11:53:27;;;;;;;2.83;1.08;;;;;;;;;;6171112;23;20079;-47
2022/01/09 11:55:53;;;;;;;2.40;1.30;;;;;;;;;;6175932;23;20447;-45
2022/01/09 11:58:20;;;;;;;6.63;1.50;;;;;;;;;;6175499;23;20013;-48
2022/01/09 12:00:45;;;;;;;3.08;1.60;;;;;;;;;;6175979;23;20017;-49
2022/01/09 12:03:26;;;;;;;3.08;1.15;;;;;;;;;;6177361;23;20005;-46
2022/01/09 12:06:08;;;;;;;4.57;1.80;;;;;;;;;;6175802;23;20013;-46
2022/01/09 12:08:52;;;;;;;3.95;1.90;;;;;;;;;;6176123;23;20021;-45
2022/01/09 12:11:17;;;;;;;3.13;1.80;;;;;;;;;;6149180;23;20021;-45
2022/01/09 12:13:42;;;;;;;2.17;1.50;;;;;;;;;;6176279;23;20432;-49
2022/01/09 12:16:08;;;;;;;4.78;1.60;;;;;;;;;;6177641;23;20431;-48
2022/01/09 12:18:42;;;;;;;4.85;1.70;;;;;;;;;;6175808;23;20467;-47
2022/01/09 12:21:08;;;;;;;4.50;1.45;;;;;;;;;;6176321;23;20127;-47
2022/01/09 12:23:33;;;;;;;8.23;2.47;;;;;;;;;;6176270;23;20017;-49
2022/01/09 12:25:59;;;;;;;4.82;2.03;;;;;;;;;;6149737;23;20009;-47
2022/01/09 12:28:25;;;;;;;4.20;1.23;;;;;;;;;;6176282;23;20017;-46
2022/01/09 12:30:58;;;;;;;3.60;1.60;;;;;;;;;;6175848;23;20025;-46
2022/01/09 12:33:25;;;;;;;4.80;1.65;;;;;;;;;;6176334;23;20008;-46
2022/01/09 12:35:56;;;;;;;2.88;0.98;;;;;;;;;;6175932;23;20032;-46
2022/01/09 12:38:23;;;;;;;2.88;1.20;;;;;;;;;;6175434;23;20009;-48
2022/01/09 12:40:54;;;;;;;4.97;1.65;;;;;;;;;;6176634;23;20008;-46
2022/01/09 12:43:21;;;;;;;3.10;1.52;;;;;;;;;;6175588;23;20407;-47
2022/01/09 12:45:46;;;;;;;4.28;1.63;;;;;;;;;;6176145;23;20084;-47
2022/01/09 12:48:21;;;;;;;2.10;1.15;;;;;;;;;;6175888;23;20044;-47
2022/01/09 12:50:47;;;;;;;4.43;1.50;;;;;;;;;;6175575;23;20024;-46
2022/01/09 12:53:23;;;;;;;4.15;1.77;;;;;;;;;;6176373;23;20005;-45
2022/01/09 12:56:11;;;;;;;4.93;1.35;;;;;;;;;;6206339;23;20009;-48
2022/01/09 12:58:50;;;;;;;2.22;1.23;;;;;;;;;;6168465;23;20009;-47
2022/01/09 13:01:22;;;;;;;4.38;1.83;;;;;;;;;;6149442;23;20013;-49
2022/01/09 13:03:49;;;;;;;3.78;1.60;;;;;;;;;;6175848;23;20005;-46
2022/01/09 13:06:16;;;;;;;3.22;1.25;;;;;;;;;;6176427;23;20012;-46
2022/01/09 13:08:45;;;;;;;2.97;1.35;;;;;;;;;;6173158;23;20444;-48
2022/01/09 13:11:12;;;;;;;3.30;1.52;;;;;;;;;;6175157;23;20075;-48
2022/01/09 13:13:38;;;;;;;3.08;1.42;;;;;;;;;;6176209;23;20009;-51
2022/01/09 13:16:10;;;;;;;8.07;1.92;;;;;;;;;;6175962;23;20867;-46
2022/01/09 13:18:38;;;;;;;3.60;1.60;;;;;;;;;;6175632;23;20049;-50
2022/01/09 13:21:10;;;;;;;7.63;2.40;;;;;;;;;;6176101;23;20405;-45
2022/01/09 13:23:35;;;;;;;3.10;1.77;;;;;;;;;;6175415;23;20012;-46
2022/01/09 13:26:00;;;;;;;3.13;1.40;;;;;;;;;;6175429;23;20507;-47
2022/01/09 13:28:27;;;;;;;3.30;1.35;;;;;;;;;;6174613;23;20459;-46
2022/01/09 13:30:56;;;;;;;4.20;1.77;;;;;;;;;;6174723;23;20017;-45
2022/01/09 13:33:22;;;;;;;2.20;1.40;;;;;;;;;;6175738;23;20012;-47
2022/01/09 13:35:47;;;;;;;1.55;1.33;;;;;;;;;;6175395;23;20108;-46
2022/01/09 13:38:12;;;;;;;4.18;1.42;;;;;;;;;;6149700;23;20039;-48
2022/01/09 13:40:38;;;;;;;3.83;1.45;;;;;;;;;;6169615;23;20005;-48
2022/01/09 13:43:03;;;;;;;1.98;1.20;;;;;;;;;;6173247;23;20017;-48
2022/01/09 13:45:33;;;;;;;2.75;1.20;;;;;;;;;;6173213;23;20016;-48
2022/01/09 13:47:59;;;;;;;;;;;;;;;;;;6173122;23;20005;-45
2022/01/09 13:50:38;;;;;;;2.67;1.35;;;;;;;;;;6172319;23;19920;-47
2022/01/09 13:53:08;;;;;;;3.15;1.40;;;;;;;;;;6172101;23;20013;-46
2022/01/09 13:55:34;;;;;;;3.85;2.65;;;;;;;;;;6168719;23;20923;-46
2022/01/09 13:58:05;;;;;;;5.03;1.95;;;;;;;;;;6173267;23;20017;-45
2022/01/09 14:00:31;;;;;;;6.80;2.10;;;;;;;;;;6170927;23;20039;-44
2022/01/09 14:02:58;;;;;;;3.78;1.75;;;;;;;;;;6171097;23;20009;-47
2022/01/09 14:05:24;;;;;;;7.22;1.77;;;;;;;;;;6172346;23;20009;-46
2022/01/09 14:07:51;;;;;;;4.28;1.80;;;;;;;;;;6148062;23;20016;-45
2022/01/09 14:10:17;;;;;;;7.65;1.73;;;;;;;;;;6173282;23;20448;-45
2022/01/09 14:12:43;;;;;;;2.63;1.85;;;;;;;;;;6175194;23;20088;-47
2022/01/09 14:15:13;;;;;;;7.70;1.63;;;;;;;;;;6175663;23;20033;-49
2022/01/09 14:17:43;;;;;;;8.02;1.98;;;;;;;;;;6174239;23;20017;-47
2022/01/09 14:20:16;;;;;;;5.18;1.90;;;;;;;;;;6175704;23;20005;-47
2022/01/09 14:22:42;;;;;;;6.47;1.27;;;;;;;;;;6205439;23;20012;-46
2022/01/09 14:25:09;;;;;;;2.25;1.02;;;;;;;;;;6205512;23;20091;-45
2022/01/09 14:27:36;;;;;;;5.60;2.25;;;;;;;;;;6205403;23;20426;-47
2022/01/09 14:30:03;;;;;;;4.50;2.03;;;;;;;;;;6204990;23;20008;-45
2022/01/09 14:32:28;;;;;;;4.00;1.77;;;;;;;;;;6204783;23;20016;-47
2022/01/09 14:34:55;;;;;;;6.18;1.70;;;;;;;;;;6179248;23;20013;-47
2022/01/09 14:37:20;;;;;;;7.35;2.17;;;;;;;;;;6204627;23;20745;-44
2022/01/09 14:39:46;;;;;;;5.25;1.85;;;;;;;;;;6206076;23;20059;-47
2022/01/09 14:42:11;;;;;;;3.00;1.40;;;;;;;;;;6205072;23;20059;-49
2022/01/09 14:44:36;;;;;;;9.93;2.28;;;;;;;;;;6205303;23;20019;-47